Towner, North Dakota
Current Conditions -  °F | °C
As of 9:55 AM on Thursday 27 Nov 2014 (Local Time) from KRUG Reporting Station
Clear Clear  
Wind Chill: -19°   Ceiling: Unl
Heat Index: -2°   Visibility: 10mi
Dew Point: -8°   Wind: 10mph
Humidity: 78%   Direction: 160°SSE
Pressure: 30.28"   Gusts: NA
Location:  48.35°N, 100.41°W
Report Text: KRUG 271555Z AUTO 16009KT 10SM CLR M19/M22 A3028 RMK AO2
Loading
Personal Weather Stations






























Interactive Weather Map New forecast layout! Learn more

10-Day Weather Forecast

Advertisements
Track Severe Weather on mobile